地図

経路データ

SID SEASON NUMBER BASIN SUBBASIN NAME ISO_TIME NATURE LAT LON WMO_WIND WMO_PRES WMO_AGENCY TRACK_TYPE DIST2LAND LANDFALL IFLAG USA_AGENCY USA_ATCF_ID USA_LAT USA_LON USA_RECORD USA_STATUS USA_WIND USA_PRES USA_SSHS USA_R34_NE USA_R34_SE USA_R34_SW USA_R34_NW USA_R50_NE USA_R50_SE USA_R50_SW USA_R50_NW USA_R64_NE USA_R64_SE USA_R64_SW USA_R64_NW USA_POCI USA_ROCI USA_RMW USA_EYE TOKYO_LAT TOKYO_LON TOKYO_GRADE TOKYO_WIND TOKYO_PRES TOKYO_R50_DIR TOKYO_R50_LONG TOKYO_R50_SHORT TOKYO_R30_DIR TOKYO_R30_LONG TOKYO_R30_SHORT TOKYO_LAND CMA_LAT CMA_LON CMA_CAT CMA_WIND CMA_PRES HKO_LAT HKO_LON HKO_CAT HKO_WIND HKO_PRES NEWDELHI_LAT NEWDELHI_LON NEWDELHI_GRADE NEWDELHI_WIND NEWDELHI_PRES NEWDELHI_CI NEWDELHI_DP NEWDELHI_POCI REUNION_LAT REUNION_LON REUNION_TYPE REUNION_WIND REUNION_PRES REUNION_TNUM REUNION_CI REUNION_RMW REUNION_R34_NE REUNION_R34_SE REUNION_R34_SW REUNION_R34_NW REUNION_R50_NE REUNION_R50_SE REUNION_R50_SW REUNION_R50_NW REUNION_R64_NE REUNION_R64_SE REUNION_R64_SW REUNION_R64_NW BOM_LAT BOM_LON BOM_TYPE BOM_WIND BOM_PRES BOM_TNUM BOM_CI BOM_RMW BOM_R34_NE BOM_R34_SE BOM_R34_SW BOM_R34_NW BOM_R50_NE BOM_R50_SE BOM_R50_SW BOM_R50_NW BOM_R64_NE BOM_R64_SE BOM_R64_SW BOM_R64_NW BOM_ROCI BOM_POCI BOM_EYE BOM_POS_METHOD BOM_PRES_METHOD NADI_LAT NADI_LON NADI_CAT NADI_WIND NADI_PRES WELLINGTON_LAT WELLINGTON_LON WELLINGTON_WIND WELLINGTON_PRES DS824_LAT DS824_LON DS824_STAGE DS824_WIND DS824_PRES TD9636_LAT TD9636_LON TD9636_STAGE TD9636_WIND TD9636_PRES TD9635_LAT TD9635_LON TD9635_WIND TD9635_PRES TD9635_ROCI NEUMANN_LAT NEUMANN_LON NEUMANN_CLASS NEUMANN_WIND NEUMANN_PRES MLC_LAT MLC_LON MLC_CLASS MLC_WIND MLC_PRES USA_GUST BOM_GUST BOM_GUST_PER REUNION_GUST REUNION_GUST_PER USA_SEAHGT USA_SEARAD_NE USA_SEARAD_SE USA_SEARAD_SW USA_SEARAD_NW STORM_SPEED STORM_DIR
1943201N15153 1943 43 WP MM NOT_NAMED 1943-07-20 09:00:00 NR 15.2000 152.700 main 2015 2014 __________O___ -1 15.2000 152.700 7 4 306
1943201N15153 1943 43 WP MM NOT_NAMED 1943-07-20 12:00:00 NR 15.3095 152.545 main 2024 2024 __________P___ -1 15.3095 152.545 7 4 309
1943201N15153 1943 43 WP MM NOT_NAMED 1943-07-20 15:00:00 NR 15.4351 152.393 main 2034 2034 __________P___ -1 15.4351 152.393 7 4 314
1943201N15153 1943 43 WP MM NOT_NAMED 1943-07-20 18:00:00 NR 15.5932 152.243 main 2051 2051 __________P___ -1 15.5932 152.243 7 5 322
1943201N15153 1943 43 WP MM NOT_NAMED 1943-07-20 21:00:00 NR 15.8000 152.100 main 2070 2070 __________O___ -1 15.8000 152.100 7 5 330
1943201N15153 1943 43 WP MM NOT_NAMED 1943-07-21 00:00:00 NR 16.0649 151.962 main 2100 2097 __________P___ -1 16.0649 151.962 7 6 335
1943201N15153 1943 43 WP MM NOT_NAMED 1943-07-21 03:00:00 NR 16.3699 151.822 main 2128 2128 __________P___ -1 16.3699 151.822 7 7 336
1943201N15153 1943 43 WP MM NOT_NAMED 1943-07-21 06:00:00 NR 16.6899 151.671 main 2158 2155 __________P___ -1 16.6899 151.671 7 7 334
1943201N15153 1943 43 WP MM NOT_NAMED 1943-07-21 09:00:00 NR 17.0000 151.500 main 2186 2186 __________O___ -1 17.0000 151.500 7 7 327
1943201N15153 1943 43 WP MM NOT_NAMED 1943-07-21 12:00:00 NR 17.2441 151.296 main 2203 2203 __________P___ -1 17.2441 151.296 7 6 319
1943201N15153 1943 43 WP MM NOT_NAMED 1943-07-21 15:00:00 NR 17.4775 151.072 main 2232 2207 __________P___ -1 17.4775 151.072 7 7 317
1943201N15153 1943 43 WP MM NOT_NAMED 1943-07-21 18:00:00 NR 17.7222 150.837 main 2202 2163 __________P___ -1 17.7222 150.837 7 7 319
1943201N15153 1943 43 WP MM NOT_NAMED 1943-07-21 21:00:00 NR 18.0000 150.600 main 2163 2123 __________O___ -1 18.0000 150.600 7 8 327
1943201N15153 1943 43 WP MM NOT_NAMED 1943-07-22 00:00:00 NR 18.3468 150.407 main 2123 2074 __________P___ -1 18.3468 150.407 7 8 333
1943201N15153 1943 43 WP MM NOT_NAMED 1943-07-22 03:00:00 NR 18.7269 150.209 main 2074 2024 __________P___ -1 18.7269 150.209 7 9 332
1943201N15153 1943 43 WP MM NOT_NAMED 1943-07-22 06:00:00 NR 19.1185 149.982 main 2024 1970 __________P___ -1 19.1185 149.982 7 9 328
1943201N15153 1943 43 WP MM NOT_NAMED 1943-07-22 09:00:00 NR 19.5000 149.700 main 1970 1916 __________O___ -1 19.5000 149.700 7 9 323
1943201N15153 1943 43 WP MM NOT_NAMED 1943-07-22 12:00:00 NR 19.8711 149.381 main 1916 1867 __________P___ -1 19.8711 149.381 7 10 318
1943201N15153 1943 43 WP MM NOT_NAMED 1943-07-22 15:00:00 NR 20.2236 149.000 main 1867 1819 __________P___ -1 20.2236 149.000 7 10 310
1943201N15153 1943 43 WP MM NOT_NAMED 1943-07-22 18:00:00 NR 20.5394 148.544 main 1814 1762 __________P___ -1 20.5394 148.544 7 11 302
1943201N15153 1943 43 WP MM NOT_NAMED 1943-07-22 21:00:00 NR 20.8000 148.000 main 1762 1716 __________O___ -1 20.8000 148.000 7 12 293
1943201N15153 1943 43 WP MM NOT_NAMED 1943-07-23 00:00:00 NR 21.0064 147.393 main 1716 1677 __________P___ -1 21.0064 147.393 7 13 286
1943201N15153 1943 43 WP MM NOT_NAMED 1943-07-23 03:00:00 NR 21.1540 146.700 main 1667 1641 __________P___ -1 21.1540 146.700 7 14 280
1943201N15153 1943 43 WP MM NOT_NAMED 1943-07-23 06:00:00 NR 21.2496 145.931 main 1637 1600 __________P___ -1 21.2496 145.931 7 15 276
1943201N15153 1943 43 WP MM NOT_NAMED 1943-07-23 09:00:00 NR 21.3000 145.100 main 1600 1575 __________O___ -1 21.3000 145.100 7 17 272
1943201N15153 1943 43 WP MM NOT_NAMED 1943-07-23 12:00:00 NR 21.2961 144.158 main 1575 1534 __________P___ -1 21.2961 144.158 7 18 269
1943201N15153 1943 43 WP MM NOT_NAMED 1943-07-23 15:00:00 NR 21.2535 143.173 main 1534 1504 __________P___ -1 21.2535 143.173 7 18 267
1943201N15153 1943 43 WP MM NOT_NAMED 1943-07-23 18:00:00 NR 21.2087 142.226 main 1500 1469 __________P___ -1 21.2087 142.226 7 17 268
1943201N15153 1943 43 WP MM NOT_NAMED 1943-07-23 21:00:00 NR 21.2000 141.400 main 1469 1448 __________O___ -1 21.2000 141.400 7 13 271
1943201N15153 1943 43 WP MM NOT_NAMED 1943-07-24 00:00:00 NR 21.2383 140.795 main 1448 1421 __________P___ -1 21.2383 140.795 7 10 277
1943201N15153 1943 43 WP MM NOT_NAMED 1943-07-24 03:00:00 NR 21.3265 140.314 main 1421 1388 __________P___ -1 21.3265 140.314 7 9 286
1943201N15153 1943 43 WP MM NOT_NAMED 1943-07-24 06:00:00 NR 21.4765 139.901 main 1388 1348 __________P___ -1 21.4765 139.901 7 8 296
1943201N15153 1943 43 WP MM NOT_NAMED 1943-07-24 09:00:00 NR 21.7000 139.500 main 1348 1286 __________O___ -1 21.7000 139.500 7 11 300
1943201N15153 1943 43 WP MM NOT_NAMED 1943-07-24 12:00:00 NR 22.0040 138.898 main 1286 1214 __________P___ -1 22.0040 138.898 7 13 302
1943201N15153 1943 43 WP MM NOT_NAMED 1943-07-24 15:00:00 NR 22.3761 138.315 main 1214 1155 __________P___ -1 22.3761 138.315 7 12 309
1943201N15153 1943 43 WP MM NOT_NAMED 1943-07-24 18:00:00 NR 22.7849 137.848 main 1149 1100 __________P___ -1 22.7849 137.848 7 11 321
1943201N15153 1943 43 WP MM NOT_NAMED 1943-07-24 21:00:00 NR 23.2000 137.600 main 1100 1068 __________O___ -1 23.2000 137.600 7 8 349
1943201N15153 1943 43 WP MM NOT_NAMED 1943-07-25 00:00:00 NR 23.6069 137.676 main 1068 1044 __________P___ -1 23.6069 137.676 7 9 23
1943201N15153 1943 43 WP MM NOT_NAMED 1943-07-25 03:00:00 NR 24.0096 137.976 main 1050 1035 __________P___ -1 24.0096 137.976 7 10 41
1943201N15153 1943 43 WP MM NOT_NAMED 1943-07-25 06:00:00 NR 24.3824 138.414 main 1035 1013 __________P___ -1 24.3824 138.414 7 11 51
1943201N15153 1943 43 WP MM NOT_NAMED 1943-07-25 09:00:00 NR 24.7000 138.900 main 1016 1004 __________O___ -1 24.7000 138.900 7 10 57
1943201N15153 1943 43 WP MM NOT_NAMED 1943-07-25 12:00:00 NR 24.9084 139.314 main 1007 1000 __________P___ -1 24.9084 139.314 7 9 65
1943201N15153 1943 43 WP MM NOT_NAMED 1943-07-25 15:00:00 NR 25.0654 139.752 main 1003 1001 __________P___ -1 25.0654 139.752 7 9 69
1943201N15153 1943 43 WP MM NOT_NAMED 1943-07-25 18:00:00 NR 25.2147 140.189 main 1009 1001 __________P___ -1 25.2147 140.189 7 8 66
1943201N15153 1943 43 WP MM NOT_NAMED 1943-07-25 21:00:00 NR 25.4000 140.600 main 1006 995 __________O___ -1 25.4000 140.600 7 9 58
1943201N15153 1943 43 WP MM NOT_NAMED 1943-07-26 00:00:00 NR 25.6737 141.002 main 995 981 __________P___ -1 25.6737 141.002 7 9 50
1943201N15153 1943 43 WP MM NOT_NAMED 1943-07-26 03:00:00 NR 25.9901 141.369 main 986 964 __________P___ -1 25.9901 141.369 7 9 42
1943201N15153 1943 43 WP MM NOT_NAMED 1943-07-26 06:00:00 NR 26.3363 141.677 main 966 929 __________P___ -1 26.3363 141.677 7 9 34
1943201N15153 1943 43 WP MM NOT_NAMED 1943-07-26 09:00:00 NR 26.7000 141.900 main 929 901 __________O___ -1 26.7000 141.900 7 8 24
1943201N15153 1943 43 WP MM NOT_NAMED 1943-07-26 12:00:00 NR 27.0439 142.032 main 901 862 __________P___ -1 27.0439 142.032 7 7 13
1943201N15153 1943 43 WP MM NOT_NAMED 1943-07-26 15:00:00 NR 27.4045 142.078 main 862 818 __________P___ -1 27.4045 142.078 7 7 2
1943201N15153 1943 43 WP MM NOT_NAMED 1943-07-26 18:00:00 NR 27.7878 142.060 main 818 773 __________P___ -1 27.7878 142.060 7 8 355
1943201N15153 1943 43 WP MM NOT_NAMED 1943-07-26 21:00:00 NR 28.2000 142.000 main 773 730 __________O___ -1 28.2000 142.000 7 9 356
1943201N15153 1943 43 WP MM NOT_NAMED 1943-07-27 00:00:00 NR 28.6538 141.992 main 719 673 __________P___ -1 28.6538 141.992 7 9 357
1943201N15153 1943 43 WP MM NOT_NAMED 1943-07-27 03:00:00 NR 29.1340 141.940 main 673 617 __________P___ -1 29.1340 141.940 7 10 351
1943201N15153 1943 43 WP MM NOT_NAMED 1943-07-27 06:00:00 NR 29.6223 141.819 main 617 558 __________P___ -1 29.6223 141.819 7 10 343
1943201N15153 1943 43 WP MM NOT_NAMED 1943-07-27 09:00:00 NR 30.1000 141.600 main 558 507 __________O___ -1 30.1000 141.600 7 10 331
1943201N15153 1943 43 WP MM NOT_NAMED 1943-07-27 12:00:00 NR 30.5033 141.262 main 507 455 __________P___ -1 30.5033 141.262 7 10 320
1943201N15153 1943 43 WP MM NOT_NAMED 1943-07-27 15:00:00 NR 30.8981 140.825 main 452 396 __________P___ -1 30.8981 140.825 7 11 315
1943201N15153 1943 43 WP MM NOT_NAMED 1943-07-27 18:00:00 NR 31.3187 140.326 main 393 325 __________P___ -1 31.3187 140.326 7 13 316
1943201N15153 1943 43 WP MM NOT_NAMED 1943-07-27 21:00:00 NR 31.8000 139.800 main 325 260 __________O___ -1 31.8000 139.800 7 14 319
1943201N15153 1943 43 WP MM NOT_NAMED 1943-07-28 00:00:00 NR 32.3620 139.250 main 248 178 __________P___ -1 32.3620 139.250 7 15 322
1943201N15153 1943 43 WP MM NOT_NAMED 1943-07-28 03:00:00 NR 32.9892 138.686 main 178 111 __________P___ -1 32.9892 138.686 7 16 325
1943201N15153 1943 43 WP MM NOT_NAMED 1943-07-28 06:00:00 NR 33.6716 138.153 main 100 33 __________P___ -1 33.6716 138.153 7 16 330
1943201N15153 1943 43 WP MM NOT_NAMED 1943-07-28 09:00:00 NR 34.4000 137.700 main 33 0 __________O___ -1 34.4000 137.700 7 16 336
1943201N15153 1943 43 WP MM NOT_NAMED 1943-07-28 12:00:00 NR 35.1660 137.362 main 0 0 __________P___ -1 35.1660 137.362 7 16 343
1943201N15153 1943 43 WP MM NOT_NAMED 1943-07-28 15:00:00 NR 35.9611 137.121 main 0 0 __________P___ -1 35.9611 137.121 7 16 348
1943201N15153 1943 43 WP MM NOT_NAMED 1943-07-28 18:00:00 NR 36.7757 136.945 main 0 0 __________P___ -1 36.7757 136.945 7 17 351
1943201N15153 1943 43 WP MM NOT_NAMED 1943-07-28 21:00:00 NR 37.6000 136.800 main 22 __________O___ -1 37.6000 136.800 7 17 352

デジタル台風データ・検索

IBTrACS Databaseについて

本データベースは、米国NOAAが公開する1842年以降の世界の熱帯低気圧のベストトラックデータアーカイブInternational Best Track Archive for Climate Stewardship (IBTrACS)を、ウェブで閲覧しやすい形式に変換したものです。

最終更新日:2021-12-06